Terminal Aerodrome Forecast
Issued by NWS Wilmington, OH

Current Version | Previous Version | Graphics & Text | Print | Product List | Glossary On
Versions: 1 2 3 4 5 6 7 8 9 10 11 12 13 14 15 16 17 18 19 20
000
FTUS41 KILN 151731
TAFDAY
TAF
KDAY 151731Z 1518/1618 18010G20KT 1SM -SN OVC012
      TEMPO 1520/1523 OVC008
     FM152300 23008KT P6SM VCSH OVC012
     FM160300 26010G20KT P6SM BKN022
     FM160500 27010KT P6SM SCT022 BKN050
     FM161400 25007KT P6SM BKN022=

USA.gov is the U.S. government's official web portal to all federal, state and local government web resources and services.